Time;durP1;ratioP1;P1;durP2;ratioP2;P2;SDS_P1;SDS_P2;PMS_P1;PMS_P2;Temp;Humidity;BMP_temperature;BMP_pressure;BME280_temperature;BME280_humidity;BME280_pressure;Samples;Min_cycle;Max_cycle;Signal;HPM_P1;HPM_P2
2022/08/08 00:01:51;;;;;;;1.97;1.87;;;;;;;17.42;46.32;102143.22;4961131;28;101084;-47
2022/08/08 00:04:36;;;;;;;2.10;1.90;;;;;;;17.42;47.22;102150.81;4955918;28;97592;-47
2022/08/08 00:07:23;;;;;;;2.30;2.20;;;;;;;17.38;47.27;102148.28;4959217;28;97165;-48
2022/08/08 00:10:03;;;;;;;2.43;2.30;;;;;;;17.37;46.87;102146.75;4957351;28;101221;-47
2022/08/08 00:12:38;;;;;;;1.73;1.63;;;;;;;17.34;46.61;102144.22;4960198;28;101602;-47
2022/08/08 00:15:06;;;;;;;1.83;1.73;;;;;;;17.30;46.53;102152.81;4955979;28;96906;-47
2022/08/08 00:17:47;;;;;;;2.10;2.00;;;;;;;17.27;47.47;102142.69;4957120;28;97260;-47
2022/08/08 00:20:20;;;;;;;2.13;2.03;;;;;;;17.24;46.85;102146.47;4958097;28;97300;-47
2022/08/08 00:22:53;;;;;;;2.30;2.13;;;;;;;17.20;46.99;102148.75;4959709;28;97304;-51
2022/08/08 00:25:28;;;;;;;2.40;2.27;;;;;;;17.16;47.21;102145.44;4957786;28;97189;-47
2022/08/08 00:27:58;;;;;;;2.30;2.20;;;;;;;17.08;46.92;102147.94;4956430;28;97377;-47
2022/08/08 00:30:29;;;;;;;2.30;1.80;;;;;;;17.05;47.01;102139.84;4956968;28;97537;-50
2022/08/08 00:33:06;;;;;;;2.80;2.60;;;;;;;17.03;47.60;102131.25;4959282;28;96684;-48
2022/08/08 00:35:49;;;;;;;2.40;2.20;;;;;;;16.99;47.82;102144.66;4962203;28;96686;-47
2022/08/08 00:38:41;;;;;;;2.10;2.00;;;;;;;16.93;47.89;102141.06;4961876;28;97206;-51
2022/08/08 00:41:47;;;;;;;1.93;1.83;;;;;;;16.86;48.01;102141.56;4957901;28;97400;-49
2022/08/08 00:44:47;;;;;;;2.33;2.10;;;;;;;16.83;48.06;102143.31;4958143;28;100178;-48
2022/08/08 00:47:37;;;;;;;2.13;2.00;;;;;;;16.81;47.61;102150.63;4959740;28;96835;-46
2022/08/08 00:50:54;;;;;;;2.10;1.97;;;;;;;16.71;48.33;102152.13;4955923;28;97123;-46
2022/08/08 00:53:45;;;;;;;2.40;2.23;;;;;;;16.69;48.07;102149.81;4954509;28;102153;-47
2022/08/08 00:56:35;;;;;;;2.27;2.17;;;;;;;16.66;47.86;102138.94;4960992;28;100316;-49
2022/08/08 00:59:25;;;;;;;2.70;2.50;;;;;;;16.63;47.32;102142.72;4960610;28;96891;-47
2022/08/08 01:02:33;;;;;;;2.03;1.93;;;;;;;16.56;48.42;102141.16;4956627;28;96862;-47
2022/08/08 01:05:30;;;;;;;2.07;1.97;;;;;;;16.49;47.44;102142.38;4961004;28;101764;-49
2022/08/08 01:08:17;;;;;;;2.80;2.60;;;;;;;16.47;48.45;102141.34;4935695;28;100341;-48
2022/08/08 01:10:48;;;;;;;2.30;2.20;;;;;;;16.45;47.70;102136.28;4956183;28;97326;-47
2022/08/08 01:13:31;;;;;;;2.37;2.20;;;;;;;16.43;47.66;102140.81;4957607;28;97212;-47
2022/08/08 01:16:16;;;;;;;2.80;2.30;;;;;;;16.40;47.55;102145.34;4958681;28;101771;-47
2022/08/08 01:19:03;;;;;;;2.40;2.30;;;;;;;16.32;48.52;102138.75;4954595;28;97854;-47
2022/08/08 01:21:51;;;;;;;3.00;2.60;;;;;;;16.23;48.91;102140.94;4958621;28;96860;-48
2022/08/08 01:24:55;;;;;;;2.67;2.47;;;;;;;16.19;48.99;102149.53;4954625;28;97874;-49
2022/08/08 01:27:22;;;;;;;2.00;1.90;;;;;;;16.16;48.08;102153.28;4957815;28;101757;-47
2022/08/08 01:30:34;;;;;;;2.33;2.23;;;;;;;16.15;49.26;102151.78;4958396;28;97459;-49
2022/08/08 01:33:29;;;;;;;2.50;2.30;;;;;;;16.12;49.32;102154.78;4955362;28;97417;-49
2022/08/08 01:36:30;;;;;;;2.00;1.90;;;;;;;16.11;49.26;102153.25;4954884;28;97157;-47
2022/08/08 01:39:22;;;;;;;2.03;1.93;;;;;;;16.06;49.23;102148.41;4956195;28;101833;-46
2022/08/08 01:42:29;;;;;;;2.80;2.60;;;;;;;16.04;49.29;102148.91;4954954;28;101330;-48
2022/08/08 01:45:12;;;;;;;2.53;2.33;;;;;;;16.00;48.27;102145.59;4955630;28;97211;-47
2022/08/08 01:48:01;;;;;;;2.77;2.60;;;;;;;15.95;49.04;102151.88;4957768;28;96994;-48
2022/08/08 01:50:39;;;;;;;1.97;1.87;;;;;;;15.90;48.41;102143.50;4956352;28;102167;-49
2022/08/08 01:53:41;;;;;;;3.90;2.87;;;;;;;15.85;49.21;102144.22;4957111;28;97018;-47
2022/08/08 01:56:20;;;;;;;2.27;2.17;;;;;;;15.82;49.13;102143.19;4955210;28;96935;-47
2022/08/08 01:59:13;;;;;;;3.00;2.30;;;;;;;15.79;49.44;102146.97;4953125;28;96779;-47
2022/08/08 02:02:21;;;;;;;2.90;2.70;;;;;;;15.73;49.69;102158.00;4956167;28;102123;-47
2022/08/08 02:05:06;;;;;;;2.40;2.30;;;;;;;15.72;50.00;102152.94;4957730;28;100303;-47
2022/08/08 02:07:37;;;;;;;1.87;1.77;;;;;;;15.70;49.00;102161.00;4958756;28;97611;-48
2022/08/08 02:10:12;;;;;;;2.17;2.07;;;;;;;15.67;49.69;102151.66;4955860;28;97347;-47
2022/08/08 02:12:54;;;;;;;3.70;2.10;;;;;;;15.68;49.76;102144.09;4957961;28;102232;-47
2022/08/08 02:15:33;;;;;;;2.50;2.30;;;;;;;15.65;49.65;102147.84;4954960;28;97112;-47
2022/08/08 02:18:17;;;;;;;3.10;2.83;;;;;;;15.59;50.25;102149.81;4952405;28;96780;-49
2022/08/08 02:22:30;;;;;;;2.77;2.37;;;;;;;15.59;49.26;102144.25;4956800;28;96951;-47
2022/08/08 02:23:43;;;;;;;2.70;2.50;;;;;;;15.59;49.35;102152.59;4956726;28;103026;-47
2022/08/08 02:26:26;;;;;;;2.60;2.40;;;;;;;15.57;49.93;102149.53;4956178;28;97154;-47
2022/08/08 02:28:58;;;;;;;2.20;2.10;;;;;;;15.51;49.16;102148.72;4959715;28;97483;-47
2022/08/08 02:31:41;;;;;;;2.27;2.17;;;;;;;15.47;50.44;102153.72;4958174;28;97241;-49
2022/08/08 02:34:47;;;;;;;2.17;2.07;;;;;;;15.43;50.37;102147.59;4956794;28;97763;-47
2022/08/08 02:37:50;;;;;;;3.10;2.73;;;;;;;15.39;50.30;102145.06;4958999;28;101705;-47
2022/08/08 02:40:24;;;;;;;2.70;2.50;;;;;;;15.37;49.47;102139.25;4948106;28;97489;-49
2022/08/08 02:43:13;;;;;;;2.50;2.30;;;;;;;15.36;50.35;102150.81;4959422;28;97397;-50
2022/08/08 02:46:09;;;;;;;2.30;2.10;;;;;;;15.34;50.03;102150.53;4958042;28;101970;-48
2022/08/08 02:48:58;;;;;;;2.40;2.30;;;;;;;15.32;50.18;102155.81;4957198;28;100413;-47
2022/08/08 02:52:11;;;;;;;2.30;2.10;;;;;;;15.23;50.58;102156.72;4955847;28;97180;-47
2022/08/08 02:54:36;;;;;;;2.60;2.40;;;;;;;15.19;49.32;102145.09;4951389;28;97038;-48
2022/08/08 02:57:42;;;;;;;2.33;2.23;;;;;;;15.16;50.37;102151.59;4955411;28;96825;-49
2022/08/08 03:00:35;;;;;;;2.30;2.20;;;;;;;15.09;49.44;102148.50;4956055;28;102991;-47
2022/08/08 03:03:23;;;;;;;4.03;2.63;;;;;;;15.05;50.37;102151.47;4953214;28;97380;-48
2022/08/08 03:06:19;;;;;;;2.57;2.37;;;;;;;15.01;50.64;102150.94;4955171;28;97187;-46
2022/08/08 03:09:06;;;;;;;2.43;2.23;;;;;;;14.96;50.44;102155.16;4956212;28;96980;-47
2022/08/08 03:11:59;;;;;;;2.10;2.00;;;;;;;14.88;50.50;102148.53;4954883;28;100173;-47
2022/08/08 03:14:36;;;;;;;3.17;2.97;;;;;;;14.75;49.99;102148.13;4955005;28;96867;-48
2022/08/08 03:17:17;;;;;;;2.63;2.50;;;;;;;14.74;50.51;102154.88;4957519;28;96959;-47
2022/08/08 03:20:04;;;;;;;2.83;2.50;;;;;;;14.71;50.93;102161.41;4956501;28;100517;-47
2022/08/08 03:22:29;;;;;;;2.83;2.63;;;;;;;14.71;49.87;102172.50;4956686;28;97146;-47
2022/08/08 03:24:55;;;;;;;1.87;1.77;;;;;;;14.69;49.93;102174.22;4947946;28;97396;-47
2022/08/08 03:27:45;;;;;;;2.43;2.33;;;;;;;14.68;50.77;102164.38;4956929;28;97410;-49
2022/08/08 03:30:12;;;;;;;2.80;2.60;;;;;;;14.65;50.20;102168.13;4954506;28;101414;-47
2022/08/08 03:35:25;;;;;;;1.60;1.50;;;;;;;14.57;50.28;102167.03;4956629;28;97054;-48
2022/08/08 03:37:50;;;;;;;2.70;2.50;;;;;;;14.53;50.18;102172.75;4954432;28;97172;-47
2022/08/08 03:40:17;;;;;;;2.77;2.57;;;;;;;14.52;50.51;102178.78;4955444;28;102000;-46
2022/08/08 03:42:43;;;;;;;2.40;2.20;;;;;;;14.51;50.52;102175.25;4958867;28;97412;-47
2022/08/08 03:45:20;;;;;;;2.30;2.20;;;;;;;14.54;51.41;102181.81;4954455;28;96852;-47
2022/08/08 03:47:55;;;;;;;2.47;2.27;;;;;;;14.53;51.25;102178.28;4956013;28;97080;-50
2022/08/08 03:50:21;;;;;;;2.73;2.53;;;;;;;14.51;50.74;102193.84;4950825;28;97376;-51
2022/08/08 03:52:46;;;;;;;2.57;2.47;;;;;;;14.52;50.54;102176.00;4963990;28;98048;-48
2022/08/08 03:55:14;;;;;;;2.10;2.00;;;;;;;14.50;50.69;102162.66;4963028;28;96977;-47
2022/08/08 03:57:47;;;;;;;2.57;2.37;;;;;;;14.50;51.08;102168.19;4962454;28;97502;-47
2022/08/08 04:00:15;;;;;;;2.47;2.30;;;;;;;14.49;50.74;102177.72;4950512;28;98020;-48
2022/08/08 04:02:41;;;;;;;2.70;2.50;;;;;;;14.47;50.85;102180.22;4961169;28;97523;-48
2022/08/08 04:05:07;;;;;;;3.10;2.90;;;;;;;14.46;50.94;102180.72;4959591;28;97220;-49
2022/08/08 04:07:38;;;;;;;2.40;2.30;;;;;;;14.46;51.37;102183.47;4964958;28;97351;-49
2022/08/08 04:10:05;;;;;;;2.17;1.97;;;;;;;14.44;51.01;102181.16;4960860;28;98209;-47
2022/08/08 04:12:30;;;;;;;3.67;2.30;;;;;;;14.45;51.10;102188.25;4959389;28;98980;-47
2022/08/08 04:14:55;;;;;;;2.63;2.40;;;;;;;14.45;51.20;102179.16;4960767;28;96878;-51
2022/08/08 04:17:21;;;;;;;2.27;2.17;;;;;;;14.48;51.12;102178.22;4961092;28;97753;-47
2022/08/08 04:19:46;;;;;;;2.53;2.43;;;;;;;14.49;51.05;102188.03;4963922;28;97741;-47
2022/08/08 04:22:11;;;;;;;2.40;2.30;;;;;;;14.50;51.10;102187.56;4961734;28;98086;-48
2022/08/08 04:24:37;;;;;;;3.10;2.30;;;;;;;14.48;51.27;102181.00;4955260;28;96873;-46
2022/08/08 04:27:02;;;;;;;2.57;2.43;;;;;;;14.47;51.12;102173.91;4958477;28;102016;-49
2022/08/08 04:29:27;;;;;;;2.93;2.70;;;;;;;14.43;51.13;102170.59;4953569;28;97382;-47
2022/08/08 04:31:53;;;;;;;2.53;2.40;;;;;;;14.44;51.39;102180.44;4958396;28;97538;-46
2022/08/08 04:34:18;;;;;;;2.53;2.43;;;;;;;14.44;51.11;102180.44;4961059;28;96620;-50
2022/08/08 04:36:43;;;;;;;2.83;2.63;;;;;;;14.41;51.16;102178.63;4957331;28;96878;-46
2022/08/08 04:39:09;;;;;;;2.47;2.20;;;;;;;14.36;51.38;102177.28;4955767;28;97443;-47
2022/08/08 04:41:34;;;;;;;2.73;2.53;;;;;;;14.35;51.59;102183.31;4957813;28;102282;-47
2022/08/08 04:43:59;;;;;;;2.60;2.40;;;;;;;14.36;51.27;102184.81;4961800;28;96857;-47
2022/08/08 04:46:25;;;;;;;3.03;2.80;;;;;;;14.37;51.48;102186.38;4962381;28;97010;-47
2022/08/08 04:48:50;;;;;;;2.73;2.53;;;;;;;14.36;51.71;102191.13;4957346;28;96779;-49
2022/08/08 04:51:15;;;;;;;3.70;2.73;;;;;;;14.38;51.77;102194.19;4955574;28;98282;-48
2022/08/08 04:53:41;;;;;;;3.00;2.80;;;;;;;14.41;51.57;102193.22;4958377;28;98462;-47
2022/08/08 04:56:06;;;;;;;2.50;2.30;;;;;;;14.43;51.66;102192.75;4960291;28;97442;-47
2022/08/08 04:58:32;;;;;;;3.20;2.27;;;;;;;14.44;51.64;102203.31;4957466;28;97037;-47
2022/08/08 05:00:57;;;;;;;2.57;2.37;;;;;;;14.47;51.85;102210.69;4955499;28;97326;-47
2022/08/08 05:03:23;;;;;;;2.70;2.50;;;;;;;14.51;51.90;102210.47;4955718;28;97259;-47
2022/08/08 05:05:48;;;;;;;2.60;2.40;;;;;;;14.55;51.98;102214.56;4962410;28;97300;-47
2022/08/08 05:08:13;;;;;;;2.70;2.50;;;;;;;14.61;51.96;102214.66;4964160;28;97600;-47
2022/08/08 05:10:39;;;;;;;2.30;2.07;;;;;;;14.61;51.84;102206.34;4955876;28;97059;-48
2022/08/08 05:13:04;;;;;;;2.87;2.67;;;;;;;14.62;51.77;102213.41;4955271;28;96909;-47
2022/08/08 05:15:30;;;;;;;2.60;2.40;;;;;;;14.64;51.84;102220.00;4960405;28;96888;-47
2022/08/08 05:17:55;;;;;;;2.97;2.77;;;;;;;14.68;51.76;102217.00;4954207;28;97067;-49
2022/08/08 05:20:20;;;;;;;5.40;2.20;;;;;;;14.69;52.05;102213.78;4959415;28;96900;-47
2022/08/08 05:22:47;;;;;;;2.33;2.20;;;;;;;14.73;51.86;102213.56;4956949;28;98830;-47
2022/08/08 05:25:12;;;;;;;2.53;2.33;;;;;;;14.76;51.91;102213.38;4958517;28;97293;-48
2022/08/08 05:27:37;;;;;;;2.60;2.40;;;;;;;14.79;52.06;102211.63;4958751;28;97508;-49
2022/08/08 05:30:03;;;;;;;2.40;2.20;;;;;;;14.82;52.03;102208.66;4957114;28;97219;-47
2022/08/08 05:32:30;;;;;;;2.50;2.40;;;;;;;14.85;52.09;102213.22;4954473;28;97362;-47
2022/08/08 05:34:59;;;;;;;2.80;2.20;;;;;;;14.90;52.52;102207.00;4956530;28;97014;-47
2022/08/08 05:37:26;;;;;;;4.10;2.33;;;;;;;14.93;52.25;102208.81;4948757;28;96903;-46
2022/08/08 05:39:53;;;;;;;2.50;2.40;;;;;;;14.97;52.28;102212.13;4948671;28;98315;-47
2022/08/08 05:42:43;;;;;;;2.60;2.50;;;;;;;15.01;52.65;102212.69;4942553;28;96807;-47
2022/08/08 05:45:09;;;;;;;2.50;2.30;;;;;;;15.09;52.35;102221.34;4924246;28;98123;-48
2022/08/08 05:47:36;;;;;;;2.17;2.07;;;;;;;15.17;52.49;102221.69;4958305;28;96867;-48
2022/08/08 05:50:06;;;;;;;4.30;2.47;;;;;;;15.22;52.26;102218.22;4961455;28;98568;-48
2022/08/08 05:52:36;;;;;;;2.20;2.10;;;;;;;15.29;52.85;102226.13;4946158;28;96656;-46
2022/08/08 05:55:03;;;;;;;2.90;2.70;;;;;;;15.34;52.40;102220.63;4949976;28;97512;-49
2022/08/08 05:57:34;;;;;;;2.53;2.43;;;;;;;15.43;52.72;102228.03;4934785;28;100644;-48
2022/08/08 06:00:06;;;;;;;2.97;2.63;;;;;;;15.50;52.63;102238.75;4954166;28;101814;-47
2022/08/08 06:05:19;;;;;;;3.67;2.37;;;;;;;15.63;52.62;102239.91;4952559;28;97681;-48
2022/08/08 06:07:47;;;;;;;2.30;2.20;;;;;;;15.71;52.78;102241.00;4943554;28;97501;-48
2022/08/08 06:10:13;;;;;;;2.80;2.60;;;;;;;15.81;52.77;102244.38;4956153;28;97249;-48
2022/08/08 06:12:40;;;;;;;3.00;2.70;;;;;;;15.91;52.76;102240.16;4959261;28;97140;-48
2022/08/08 06:15:08;;;;;;;3.70;2.70;;;;;;;16.02;52.74;102253.38;4956540;28;97412;-47
2022/08/08 06:17:35;;;;;;;3.10;2.90;;;;;;;16.13;52.80;102243.16;4956252;28;98037;-47
2022/08/08 06:20:06;;;;;;;2.30;2.20;;;;;;;16.24;53.23;102242.47;4956301;28;96810;-49
2022/08/08 06:22:32;;;;;;;2.70;2.50;;;;;;;16.33;52.95;102248.59;4955573;28;97060;-49
2022/08/08 06:24:58;;;;;;;3.07;2.77;;;;;;;16.42;52.96;102248.41;4959290;28;97253;-47
2022/08/08 06:27:35;;;;;;;2.20;2.10;;;;;;;16.57;53.67;102248.31;4956575;28;101956;-48
2022/08/08 06:30:05;;;;;;;2.40;2.30;;;;;;;16.69;53.26;102254.66;4953639;28;101704;-49
2022/08/08 06:32:31;;;;;;;2.30;2.20;;;;;;;16.79;52.75;102256.78;4955950;28;97019;-49
2022/08/08 06:34:59;;;;;;;3.20;2.90;;;;;;;16.92;53.20;102257.09;4958260;28;97501;-49
2022/08/08 06:37:30;;;;;;;3.80;2.80;;;;;;;17.07;52.78;102254.13;4956588;28;96890;-48
2022/08/08 06:40:02;;;;;;;2.20;2.00;;;;;;;17.22;52.91;102252.69;4957408;28;97210;-48
2022/08/08 06:42:30;;;;;;;2.93;2.73;;;;;;;17.38;52.65;102262.34;4956543;28;96942;-49
2022/08/08 06:44:56;;;;;;;2.07;1.97;;;;;;;17.52;52.53;102263.44;4958018;28;97092;-47
2022/08/08 06:47:22;;;;;;;2.50;2.40;;;;;;;17.64;52.39;102268.53;4955930;28;97012;-49
2022/08/08 06:49:48;;;;;;;2.43;2.33;;;;;;;17.75;52.31;102265.00;4955296;28;97925;-49
2022/08/08 06:52:14;;;;;;;2.33;2.13;;;;;;;17.86;52.33;102263.03;4956865;28;96784;-48
2022/08/08 06:54:41;;;;;;;2.53;2.00;;;;;;;17.96;52.35;102278.22;4952987;28;97153;-48
2022/08/08 06:57:09;;;;;;;2.13;1.93;;;;;;;18.09;52.43;102272.13;4960520;28;98113;-47
2022/08/08 06:59:35;;;;;;;3.20;2.23;;;;;;;18.19;52.24;102275.44;4954561;28;97124;-49
2022/08/08 07:02:03;;;;;;;2.23;2.13;;;;;;;18.32;52.12;102278.50;4957059;28;97383;-54
2022/08/08 07:04:48;;;;;;;2.63;2.47;;;;;;;18.46;52.80;102280.28;4958995;28;97109;-48
2022/08/08 07:07:20;;;;;;;2.40;2.20;;;;;;;18.59;52.10;102278.50;4955334;28;103252;-48
2022/08/08 07:10:00;;;;;;;2.33;2.00;;;;;;;18.75;52.07;102285.31;4961075;28;97331;-47
2022/08/08 07:13:16;;;;;;;1.93;1.83;;;;;;;18.92;52.27;102279.69;4956046;28;97487;-48
2022/08/08 07:16:21;;;;;;;2.47;2.37;;;;;;;19.09;52.35;102277.63;4944028;28;98238;-49
2022/08/08 07:19:14;;;;;;;2.33;2.23;;;;;;;19.22;52.11;102275.78;4955919;28;100838;-48
2022/08/08 07:21:56;;;;;;;2.70;2.00;;;;;;;19.35;52.20;102273.22;4951159;28;96971;-48
2022/08/08 07:24:28;;;;;;;1.90;1.80;;;;;;;19.48;51.06;102281.03;4962123;28;97556;-49
2022/08/08 07:26:54;;;;;;;2.23;2.03;;;;;;;19.61;50.85;102277.66;4957512;28;96714;-49
2022/08/08 07:29:21;;;;;;;2.27;1.90;;;;;;;19.77;50.67;102279.59;4961292;28;97297;-49
2022/08/08 07:31:47;;;;;;;3.00;1.93;;;;;;;19.91;50.50;102290.44;4958144;28;96864;-49
2022/08/08 07:34:15;;;;;;;2.30;2.20;;;;;;;20.08;50.24;102276.31;4961206;28;96850;-49
2022/08/08 07:36:42;;;;;;;1.80;1.70;;;;;;;20.22;50.15;102280.84;4959364;28;96677;-48
2022/08/08 07:39:07;;;;;;;1.90;1.80;;;;;;;20.35;50.01;102280.97;4958919;28;99108;-48
2022/08/08 07:41:37;;;;;;;2.33;2.00;;;;;;;20.49;49.47;102277.03;4959978;28;97494;-49
2022/08/08 07:44:04;;;;;;;1.80;1.70;;;;;;;20.65;49.66;102275.34;4961048;28;96789;-48
2022/08/08 07:46:30;;;;;;;2.10;2.00;;;;;;;20.77;49.16;102271.16;4960966;28;97553;-48
2022/08/08 07:48:55;;;;;;;1.70;1.60;;;;;;;20.90;49.01;102272.03;4959730;28;97468;-48
2022/08/08 07:51:22;;;;;;;3.30;1.90;;;;;;;21.08;48.72;102270.56;4959788;28;96917;-48
2022/08/08 07:54:24;;;;;;;1.90;1.80;;;;;;;21.24;48.40;102275.22;4960075;28;97038;-49
2022/08/08 07:57:02;;;;;;;1.43;1.33;;;;;;;21.41;48.13;102283.41;4957927;28;96754;-50
2022/08/08 08:00:03;;;;;;;1.60;1.50;;;;;;;21.54;47.44;102281.44;4955636;28;97453;-50
2022/08/08 08:03:09;;;;;;;1.87;1.77;;;;;;;21.67;47.24;102277.22;4950473;28;100071;-50
2022/08/08 08:05:43;;;;;;;1.80;1.70;;;;;;;21.86;47.55;102287.16;4961643;28;97065;-48
2022/08/08 08:08:11;;;;;;;1.90;1.50;;;;;;;22.01;47.51;102289.47;4962248;28;97368;-47
2022/08/08 08:10:37;;;;;;;1.60;1.50;;;;;;;22.11;47.17;102285.72;4956223;28;96967;-47
2022/08/08 08:13:21;;;;;;;1.63;1.53;;;;;;;22.24;46.48;102299.03;4954876;28;97161;-48
2022/08/08 08:16:10;;;;;;;1.57;1.47;;;;;;;22.33;45.29;102287.41;4960886;28;96735;-48
2022/08/08 08:18:42;;;;;;;1.93;1.83;;;;;;;22.45;45.69;102287.97;4961350;28;97492;-49
2022/08/08 08:21:08;;;;;;;1.87;1.77;;;;;;;22.55;45.90;102298.25;4957501;28;100648;-49
2022/08/08 08:23:34;;;;;;;2.10;2.00;;;;;;;22.66;45.64;102300.88;4956836;28;97345;-49
2022/08/08 08:26:00;;;;;;;2.07;1.70;;;;;;;22.75;45.36;102297.66;4959102;28;96961;-49
2022/08/08 08:28:25;;;;;;;1.63;1.53;;;;;;;22.89;45.37;102301.22;4958117;28;97067;-49
2022/08/08 08:30:52;;;;;;;1.90;1.80;;;;;;;23.01;45.09;102291.28;4960544;28;97367;-49
2022/08/08 08:33:18;;;;;;;2.20;2.10;;;;;;;23.13;45.12;102301.00;4956804;28;97434;-46
2022/08/08 08:35:44;;;;;;;1.73;1.63;;;;;;;23.32;44.96;102298.81;4956284;28;97353;-48
2022/08/08 08:38:09;;;;;;;1.73;1.63;;;;;;;23.42;44.54;102301.97;4958897;28;97056;-49
2022/08/08 08:40:35;;;;;;;1.90;1.80;;;;;;;23.54;44.53;102294.81;4957895;28;97750;-48
2022/08/08 08:43:01;;;;;;;1.80;1.70;;;;;;;23.62;44.33;102292.84;4957049;28;97089;-49
2022/08/08 08:45:27;;;;;;;1.70;1.60;;;;;;;23.74;44.35;102292.03;4959699;28;97361;-47
2022/08/08 08:47:54;;;;;;;2.53;1.70;;;;;;;23.90;43.86;102295.78;4957357;28;96982;-48
2022/08/08 08:50:25;;;;;;;2.60;1.80;;;;;;;24.07;43.27;102290.53;4954031;28;97348;-48
2022/08/08 08:52:52;;;;;;;1.80;1.70;;;;;;;24.24;43.36;102285.28;4962744;28;97332;-48
2022/08/08 08:55:19;;;;;;;1.60;1.50;;;;;;;24.41;43.32;102287.66;4956119;28;97794;-48
2022/08/08 08:57:48;;;;;;;1.90;1.80;;;;;;;24.53;42.61;102281.19;4957598;28;97255;-49
2022/08/08 09:00:14;;;;;;;1.50;1.40;;;;;;;24.65;42.66;102284.47;4960846;28;97521;-51
2022/08/08 09:02:41;;;;;;;2.00;1.90;;;;;;;24.72;42.31;102295.03;4958023;28;96904;-49
2022/08/08 09:05:07;;;;;;;1.60;1.50;;;;;;;24.81;41.91;102294.56;4959012;28;97121;-48
2022/08/08 09:07:34;;;;;;;2.57;1.97;;;;;;;24.91;42.12;102292.72;4960768;28;96985;-49
2022/08/08 09:10:00;;;;;;;3.47;2.33;;;;;;;25.05;42.00;102288.47;4958641;28;97431;-48
2022/08/08 09:12:27;;;;;;;3.77;2.30;;;;;;;25.15;41.41;102285.91;4946492;28;97594;-49
2022/08/08 09:14:55;;;;;;;2.13;2.03;;;;;;;25.28;41.05;102294.22;4955942;28;97261;-49
2022/08/08 09:17:23;;;;;;;2.03;1.93;;;;;;;25.37;41.09;102290.88;4955383;28;97328;-48
2022/08/08 09:19:52;;;;;;;2.53;2.30;;;;;;;25.52;40.96;102295.84;4958864;28;96977;-48
2022/08/08 09:22:21;;;;;;;1.77;1.67;;;;;;;25.65;40.51;102284.44;4956619;28;97416;-49
2022/08/08 09:24:48;;;;;;;2.37;2.17;;;;;;;25.72;40.00;102290.09;4957998;28;97408;-49
2022/08/08 09:27:13;;;;;;;1.80;1.70;;;;;;;25.77;39.92;102285.59;4955279;28;96868;-49
2022/08/08 09:29:45;;;;;;;2.07;1.80;;;;;;;25.84;39.30;102285.59;4959623;28;96680;-50
2022/08/08 09:32:16;;;;;;;2.47;2.27;;;;;;;25.96;39.68;102288.84;4958200;28;97319;-48
2022/08/08 09:34:46;;;;;;;2.50;2.10;;;;;;;26.04;39.31;102283.94;4956598;28;97947;-48
2022/08/08 09:37:16;;;;;;;2.07;1.97;;;;;;;26.10;39.05;102278.91;4960168;28;97125;-49
2022/08/08 09:39:57;;;;;;;2.03;1.93;;;;;;;26.23;38.77;102283.63;4955399;28;100675;-49
2022/08/08 09:42:31;;;;;;;2.00;1.90;;;;;;;26.30;38.39;102285.69;4953443;28;100386;-49
2022/08/08 09:45:08;;;;;;;1.87;1.77;;;;;;;26.46;38.43;102285.13;4958749;28;97670;-49
2022/08/08 09:47:36;;;;;;;1.97;1.77;;;;;;;26.60;38.53;102283.59;4957064;28;97054;-48
2022/08/08 09:50:05;;;;;;;2.37;2.20;;;;;;;26.69;38.10;102280.19;4956813;28;97230;-50
2022/08/08 09:52:33;;;;;;;1.90;1.70;;;;;;;26.84;37.87;102282.28;4957305;28;98474;-49
2022/08/08 09:54:59;;;;;;;2.00;1.90;;;;;;;26.92;37.82;102274.53;4958607;28;97287;-48
2022/08/08 09:57:32;;;;;;;1.67;1.57;;;;;;;27.06;37.67;102280.72;4956073;28;97011;-49
2022/08/08 10:00:04;;;;;;;1.50;1.40;;;;;;;27.25;37.43;102275.34;4958168;28;99841;-48
2022/08/08 10:02:35;;;;;;;2.00;1.90;;;;;;;27.37;37.18;102276.44;4956639;28;98846;-48
2022/08/08 10:05:06;;;;;;;1.60;1.50;;;;;;;27.39;35.88;102282.31;4955418;28;97276;-48
2022/08/08 10:07:32;;;;;;;1.60;1.50;;;;;;;27.12;36.76;102284.84;4956106;28;97281;-49
2022/08/08 10:09:57;;;;;;;1.43;1.33;;;;;;;26.91;36.88;102278.66;4958027;28;97605;-49
2022/08/08 10:12:36;;;;;;;1.73;1.57;;;;;;;26.74;34.88;102276.44;4955375;28;97266;-50
2022/08/08 10:15:04;;;;;;;2.03;1.93;;;;;;;26.56;36.79;102276.84;4955583;28;97124;-49
2022/08/08 10:17:32;;;;;;;1.73;1.63;;;;;;;26.55;37.34;102295.84;4962661;28;97385;-49
2022/08/08 10:19:59;;;;;;;2.03;1.63;;;;;;;26.73;37.25;102274.94;4957072;28;99279;-49
2022/08/08 10:22:27;;;;;;;1.67;1.57;;;;;;;26.92;37.00;102274.53;4951714;28;97477;-50
2022/08/08 10:25:00;;;;;;;2.10;1.90;;;;;;;27.04;36.05;102274.88;4958571;28;97174;-49
2022/08/08 10:27:31;;;;;;;1.80;1.70;;;;;;;27.16;36.54;102281.59;4958446;28;96734;-49
2022/08/08 10:30:01;;;;;;;2.13;2.03;;;;;;;27.24;36.43;102268.94;4957935;28;100407;-49
2022/08/08 10:32:31;;;;;;;2.13;1.90;;;;;;;27.40;36.24;102280.97;4953454;28;97439;-50
2022/08/08 10:35:05;;;;;;;2.40;2.20;;;;;;;27.43;35.57;102271.34;4953964;28;97881;-49
2022/08/08 10:37:35;;;;;;;2.10;1.97;;;;;;;27.30;35.46;102269.47;4957451;28;97120;-49
2022/08/08 10:40:12;;;;;;;2.10;2.00;;;;;;;27.08;35.77;102269.59;4959042;28;96632;-50
2022/08/08 10:42:39;;;;;;;1.70;1.60;;;;;;;27.15;36.13;102258.25;4958195;28;100845;-49
2022/08/08 10:45:07;;;;;;;1.60;1.53;;;;;;;27.36;36.18;102261.59;4958011;28;97024;-49
2022/08/08 10:47:33;;;;;;;1.17;1.17;;;;;;;27.59;35.91;102258.63;4956693;28;96850;-50
2022/08/08 10:50:01;;;;;;;1.70;1.60;;;;;;;27.76;35.46;102258.69;4957601;28;96968;-49
2022/08/08 10:52:40;;;;;;;2.03;1.90;;;;;;;27.81;32.81;102257.72;4955494;28;97155;-49
2022/08/08 10:55:09;;;;;;;1.80;1.70;;;;;;;27.76;34.93;102261.53;4959513;28;96938;-49
2022/08/08 10:57:48;;;;;;;2.93;1.90;;;;;;;27.77;34.91;102251.72;4946055;28;97120;-49
2022/08/08 11:00:25;;;;;;;1.73;1.63;;;;;;;27.94;34.03;102254.63;4958594;28;96891;-49
2022/08/08 11:02:51;;;;;;;2.43;2.10;;;;;;;28.10;34.44;102258.88;4958392;28;97505;-49
2022/08/08 11:05:17;;;;;;;1.67;1.57;;;;;;;28.24;34.48;102262.16;4958673;28;97336;-49
2022/08/08 11:07:56;;;;;;;1.80;1.70;;;;;;;28.26;32.94;102264.41;4953848;28;96635;-50
2022/08/08 11:10:24;;;;;;;2.10;2.00;;;;;;;28.36;33.91;102256.75;4959996;28;97544;-50
2022/08/08 11:12:49;;;;;;;1.77;1.67;;;;;;;28.31;33.74;102264.16;4956073;28;98392;-47
2022/08/08 11:15:17;;;;;;;1.60;1.50;;;;;;;28.13;33.90;102262.63;4956196;28;96837;-49
2022/08/08 11:17:44;;;;;;;1.50;1.40;;;;;;;28.03;33.86;102258.91;4957075;28;97431;-49
2022/08/08 11:20:12;;;;;;;1.80;1.70;;;;;;;27.91;34.27;102252.97;4957107;28;101220;-49
2022/08/08 11:22:38;;;;;;;1.83;1.73;;;;;;;27.84;34.06;102262.25;4960212;28;97776;-49
2022/08/08 11:25:06;;;;;;;1.57;1.47;;;;;;;27.77;34.39;102250.97;4954975;28;96787;-49
2022/08/08 11:27:34;;;;;;;1.53;1.43;;;;;;;27.75;34.15;102250.78;4954968;28;97340;-49
2022/08/08 11:30:04;;;;;;;1.90;1.70;;;;;;;27.88;34.38;102247.69;4956276;28;97487;-49
2022/08/08 11:32:30;;;;;;;1.50;1.40;;;;;;;28.12;34.20;102256.22;4948280;28;97250;-49
2022/08/08 11:35:03;;;;;;;1.90;1.67;;;;;;;28.37;33.63;102252.59;4954052;28;96946;-49
2022/08/08 11:37:29;;;;;;;1.50;1.40;;;;;;;28.52;33.34;102253.22;4957912;28;96751;-49
2022/08/08 11:39:56;;;;;;;1.47;1.40;;;;;;;28.57;33.07;102248.63;4958182;28;98506;-50
2022/08/08 11:42:23;;;;;;;2.00;1.90;;;;;;;28.66;33.11;102251.56;4955139;28;96822;-49
2022/08/08 11:44:51;;;;;;;1.80;1.70;;;;;;;28.68;33.19;102253.84;4953565;28;96840;-49
2022/08/08 11:47:17;;;;;;;2.03;1.83;;;;;;;28.61;33.57;102244.09;4953475;28;96800;-49
2022/08/08 11:49:43;;;;;;;1.13;1.13;;;;;;;28.51;33.36;102242.44;4955824;28;97645;-49
2022/08/08 11:52:09;;;;;;;2.00;1.60;;;;;;;28.40;33.50;102257.84;4957515;28;97577;-47
2022/08/08 11:54:35;;;;;;;1.70;1.60;;;;;;;28.50;33.30;102250.22;4957701;28;97215;-49
2022/08/08 11:57:28;;;;;;;4.90;1.53;;;;;;;28.83;31.16;102248.00;4953935;28;97081;-48
2022/08/08 12:00:01;;;;;;;1.77;1.67;;;;;;;29.14;32.48;102251.22;4953431;28;101791;-49
2022/08/08 12:02:29;;;;;;;2.03;1.90;;;;;;;29.33;32.09;102235.13;4956719;28;97048;-49